createdAt,value
2023-05-14T00:02:19.791Z,102080.94
2023-05-14T00:04:49.966Z,102087.16
2023-05-14T00:07:20.117Z,102081.03
2023-05-14T00:09:50.235Z,102088.00
2023-05-14T00:12:20.397Z,102085.38
2023-05-14T00:14:50.977Z,102078.47
2023-05-14T00:17:21.098Z,102093.28
2023-05-14T00:19:51.370Z,102082.81
2023-05-14T00:22:21.581Z,102088.09
2023-05-14T00:31:14.271Z,102089.16
2023-05-14T00:33:44.468Z,102088.34
2023-05-14T00:36:14.554Z,102082.25
2023-05-14T00:38:44.700Z,102066.59
2023-05-14T00:41:14.958Z,102083.22
2023-05-14T00:43:45.117Z,102086.78
2023-05-14T00:46:16.083Z,102082.50
2023-05-14T00:48:46.918Z,102089.47
2023-05-14T00:51:18.369Z,102084.28
2023-05-14T00:53:48.976Z,102069.47
2023-05-14T00:56:19.605Z,102086.97
2023-05-14T00:58:49.691Z,102066.13
2023-05-14T01:01:19.921Z,102077.53
2023-05-14T01:03:50.305Z,102074.06
2023-05-14T01:06:36.930Z,102071.50
2023-05-14T01:09:18.937Z,102082.91
2023-05-14T01:12:01.147Z,102075.94
2023-05-14T01:14:54.925Z,102074.19
2023-05-14T01:17:28.573Z,102079.47
2023-05-14T01:20:00.637Z,102073.41
2023-05-14T01:22:30.780Z,102064.72
2023-05-14T01:25:00.979Z,102063.97
2023-05-14T01:27:46.698Z,102070.13
2023-05-14T01:30:23.065Z,102082.38
2023-05-14T01:32:54.915Z,102087.63
2023-05-14T01:35:29.263Z,102075.50
2023-05-14T01:38:05.152Z,102071.19
2023-05-14T01:40:37.258Z,102076.47
2023-05-14T01:43:08.014Z,102062.59
2023-05-14T01:45:38.197Z,102067.81
2023-05-14T01:48:08.460Z,102059.97
2023-05-14T01:50:38.956Z,102075.69
2023-05-14T01:53:09.145Z,102065.22
2023-05-14T01:55:39.335Z,102074.88
2023-05-14T01:58:09.452Z,102051.31
2023-05-14T02:00:39.601Z,102061.81
2023-05-14T02:03:09.773Z,102068.84
2023-05-14T02:05:39.882Z,102065.47
2023-05-14T02:08:10.077Z,102066.38
2023-05-14T02:10:40.116Z,102066.38
2023-05-14T02:13:10.325Z,102057.63
2023-05-14T02:15:40.541Z,102073.41
2023-05-14T02:18:10.820Z,102057.66
2023-05-14T02:20:41.081Z,102061.13
2023-05-14T02:23:11.197Z,102044.59
2023-05-14T02:25:41.334Z,102055.88
2023-05-14T02:28:11.399Z,102055.00
2023-05-14T02:30:41.584Z,102034.09
2023-05-14T02:33:11.847Z,102057.63
2023-05-14T02:35:42.076Z,102062.00
2023-05-14T02:38:12.436Z,102048.91
2023-05-14T02:40:42.514Z,102061.09
2023-05-14T02:43:12.626Z,102061.13
2023-05-14T02:45:43.182Z,102061.94
2023-05-14T02:48:13.377Z,102061.94
2023-05-14T02:50:43.557Z,102061.03
2023-05-14T02:53:13.841Z,102053.16
2023-05-14T02:55:43.997Z,102040.09
2023-05-14T02:58:14.118Z,102064.53
2023-05-14T03:00:44.243Z,102054.94
2023-05-14T03:03:14.814Z,102055.78
2023-05-14T03:05:45.586Z,102054.94
2023-05-14T03:08:15.754Z,102044.47
2023-05-14T03:10:46.181Z,102054.03
2023-05-14T03:13:18.098Z,102060.13
2023-05-14T03:15:48.802Z,102059.28
2023-05-14T03:18:18.959Z,102041.00
2023-05-14T03:20:49.275Z,102062.78
2023-05-14T03:23:19.427Z,102049.72
2023-05-14T03:25:49.574Z,102057.59
2023-05-14T03:28:19.703Z,102063.72
2023-05-14T03:30:50.006Z,102044.50
2023-05-14T03:33:20.300Z,102069.00
2023-05-14T03:35:50.472Z,102037.53
2023-05-14T03:38:20.613Z,102028.00
2023-05-14T03:40:50.791Z,102055.00
2023-05-14T03:43:20.929Z,102052.38
2023-05-14T03:45:52.852Z,102055.00
2023-05-14T03:48:23.136Z,102056.78
2023-05-14T03:50:53.484Z,102044.53
2023-05-14T03:53:23.604Z,102037.53
2023-05-14T03:55:53.789Z,102049.81
2023-05-14T03:58:24.018Z,102050.63
2023-05-14T04:00:54.344Z,102048.88
2023-05-14T04:03:24.689Z,102045.38
2023-05-14T04:05:54.790Z,102046.22
2023-05-14T04:08:24.916Z,102060.25
2023-05-14T04:10:55.421Z,102054.16
2023-05-14T04:13:25.645Z,102039.28
2023-05-14T04:15:55.835Z,102049.75
2023-05-14T04:18:26.077Z,102034.84
2023-05-14T04:20:56.444Z,102048.78
2023-05-14T04:23:26.609Z,102054.88
2023-05-14T04:25:56.748Z,102057.44
2023-05-14T04:28:26.993Z,102056.50
2023-05-14T04:30:57.170Z,102036.41
2023-05-14T04:33:27.413Z,102052.03
2023-05-14T04:35:57.533Z,102034.63
2023-05-14T04:38:28.365Z,102035.41
2023-05-14T04:40:58.629Z,102034.47
2023-05-14T04:43:28.742Z,102044.91
2023-05-14T04:45:58.995Z,102034.44
2023-05-14T04:48:29.166Z,102038.72
2023-05-14T04:50:59.333Z,102033.53
2023-05-14T04:53:29.496Z,102022.09
2023-05-14T04:55:59.663Z,102036.81
2023-05-14T04:58:33.793Z,102034.13
2023-05-14T05:01:06.125Z,102042.81
2023-05-14T05:03:36.231Z,102033.94
2023-05-14T05:06:06.623Z,102035.59
2023-05-14T05:08:37.182Z,102019.84
2023-05-14T05:11:07.370Z,102024.06
2023-05-14T05:13:37.401Z,102027.47
2023-05-14T05:16:07.775Z,102018.59
2023-05-14T05:18:37.990Z,102022.88
2023-05-14T05:21:08.160Z,102007.91
2023-05-14T05:23:38.358Z,102013.00
2023-05-14T05:26:08.668Z,102011.19
2023-05-14T05:28:38.752Z,102001.53
2023-05-14T05:31:09.082Z,102019.66
2023-05-14T05:33:39.442Z,102004.78
2023-05-14T05:36:09.667Z,102013.38
2023-05-14T05:38:39.745Z,102008.03
2023-05-14T05:41:09.895Z,102006.19
2023-05-14T05:43:39.974Z,102005.16
2023-05-14T05:46:10.666Z,102009.38
2023-05-14T05:48:40.878Z,102012.75
2023-05-14T05:51:11.669Z,102011.75
2023-05-14T05:53:41.941Z,101993.38
2023-05-14T05:56:12.045Z,101985.22
2023-05-14T05:58:42.249Z,102001.66
2023-05-14T06:01:12.388Z,102004.16
2023-05-14T06:03:42.616Z,102003.06
2023-05-14T06:06:12.738Z,101989.91
2023-05-14T06:08:42.929Z,102001.91
2023-05-14T06:11:13.300Z,101991.31
2023-05-14T06:13:43.499Z,101995.47
2023-05-14T06:16:13.635Z,102003.19
2023-05-14T06:18:43.855Z,101994.31
2023-05-14T06:21:14.099Z,102007.25
2023-05-14T06:23:44.449Z,102009.06
2023-05-14T06:26:14.670Z,102011.72
2023-05-14T06:28:44.991Z,101993.38
2023-05-14T06:31:15.224Z,102015.06
2023-05-14T06:33:45.453Z,102008.06
2023-05-14T06:36:15.664Z,102020.22
2023-05-14T06:38:45.828Z,102012.19
2023-05-14T06:41:15.954Z,102004.09
2023-05-14T06:43:46.460Z,102017.75
2023-05-14T06:46:16.575Z,102002.75
2023-05-14T06:48:46.904Z,102017.28
2023-05-14T06:51:17.127Z,101996.09
2023-05-14T06:53:48.966Z,102006.47
2023-05-14T06:56:19.065Z,102015.81
2023-05-14T06:58:49.320Z,101998.31
2023-05-14T07:01:19.511Z,101976.25
2023-05-14T07:03:50.002Z,102000.25
2023-05-14T07:06:20.235Z,102012.25
2023-05-14T07:08:50.363Z,101974.63
2023-05-14T07:11:20.528Z,101985.63
2023-05-14T07:13:50.751Z,101981.06
2023-05-14T07:16:20.922Z,101992.09
2023-05-14T07:18:51.378Z,101989.16
2023-05-14T07:21:21.568Z,101988.03
2023-05-14T07:23:51.677Z,101991.13
2023-05-14T07:26:24.532Z,101986.47
2023-05-14T07:28:54.701Z,101977.47
2023-05-14T07:31:24.822Z,101978.03
2023-05-14T07:33:55.087Z,101964.03
2023-05-14T07:36:25.937Z,101975.03
2023-05-14T07:38:56.125Z,101975.50
2023-05-14T07:41:26.324Z,101981.38
2023-05-14T07:43:56.553Z,101969.66
2023-05-14T07:46:26.914Z,101972.16
2023-05-14T07:48:57.050Z,101941.34
2023-05-14T07:51:28.600Z,101961.88
2023-05-14T07:53:58.688Z,101951.94
2023-05-14T07:56:28.856Z,101957.66
2023-05-14T07:58:58.919Z,101947.03
2023-05-14T08:01:29.071Z,101964.94
2023-05-14T08:03:59.265Z,101933.25
2023-05-14T08:06:29.826Z,101951.97
2023-05-14T08:08:59.950Z,101945.63
2023-05-14T08:11:30.062Z,101945.13
2023-05-14T08:14:00.442Z,101911.88
2023-05-14T08:16:30.650Z,101942.69
2023-05-14T08:19:00.911Z,101937.31
2023-05-14T08:21:31.819Z,101931.19
2023-05-14T08:24:02.098Z,101930.38
2023-05-14T08:26:32.581Z,101918.00
2023-05-14T08:29:02.800Z,101930.53
2023-05-14T08:31:33.057Z,101923.09
2023-05-14T08:34:03.235Z,101930.63
2023-05-14T08:36:33.339Z,101942.38
2023-05-14T08:39:03.550Z,101945.69
2023-05-14T08:41:34.675Z,101939.28
2023-05-14T08:44:13.616Z,101918.13
2023-05-14T08:46:44.429Z,101906.50
2023-05-14T08:49:40.566Z,101925.06
2023-05-14T08:52:13.885Z,101913.38
2023-05-14T08:54:45.641Z,101919.78
2023-05-14T08:57:19.000Z,101899.16
2023-05-14T08:59:49.330Z,101886.53
2023-05-14T09:02:24.543Z,101889.84
2023-05-14T09:04:57.598Z,101900.59
2023-05-14T09:07:28.560Z,101906.38
2023-05-14T09:09:59.216Z,101898.44
2023-05-14T09:12:29.393Z,101898.25
2023-05-14T09:14:59.542Z,101887.22
2023-05-14T09:17:29.793Z,101885.91
2023-05-14T09:20:00.003Z,101890.72
2023-05-14T09:22:33.572Z,101878.75
2023-05-14T09:25:05.957Z,101867.97
2023-05-14T09:27:37.463Z,101876.59
2023-05-14T09:30:12.956Z,101875.59
2023-05-14T09:32:44.691Z,101860.41
2023-05-14T09:35:17.988Z,101871.78
2023-05-14T09:37:50.798Z,101858.53
2023-05-14T09:40:23.632Z,101865.66
2023-05-14T09:42:54.538Z,101855.25
2023-05-14T09:45:24.776Z,101849.19
2023-05-14T09:47:55.058Z,101815.25
2023-05-14T09:50:26.812Z,101848.47
2023-05-14T09:52:57.814Z,101852.09
2023-05-14T09:55:28.391Z,101815.16
2023-05-14T09:57:58.593Z,101848.34
2023-05-14T10:00:30.220Z,101825.84
2023-05-14T10:03:06.847Z,101833.25
2023-05-14T10:05:37.794Z,101806.78
2023-05-14T10:08:31.140Z,101826.34
2023-05-14T10:11:08.574Z,101822.03
2023-05-14T10:13:41.859Z,101837.78
2023-05-14T10:16:34.142Z,101802.34
2023-05-14T10:19:15.819Z,101828.44
2023-05-14T10:21:53.337Z,101822.09
2023-05-14T10:24:25.867Z,101809.41
2023-05-14T10:26:56.778Z,101809.00
2023-05-14T10:29:56.336Z,101808.56
2023-05-14T10:32:29.070Z,101808.91
2023-05-14T10:35:02.023Z,101788.56
2023-05-14T10:37:33.659Z,101798.50
2023-05-14T10:40:10.108Z,101806.25
2023-05-14T10:42:40.929Z,101789.81
2023-05-14T10:45:13.641Z,101789.63
2023-05-14T10:47:46.060Z,101787.56
2023-05-14T10:50:16.428Z,101767.97
2023-05-14T10:52:46.640Z,101797.44
2023-05-14T10:55:17.470Z,101781.94
2023-05-14T10:57:48.021Z,101788.06
2023-05-14T11:00:18.440Z,101770.84
2023-05-14T11:02:48.626Z,101754.31
2023-05-14T11:05:18.807Z,101747.78
2023-05-14T11:07:50.177Z,101753.72
2023-05-14T11:10:22.428Z,101759.13
2023-05-14T11:12:53.035Z,101733.81
2023-05-14T11:15:26.212Z,101765.72
2023-05-14T11:17:56.554Z,101759.22
2023-05-14T11:20:27.122Z,101748.94
2023-05-14T11:22:57.413Z,101722.34
2023-05-14T11:25:27.626Z,101752.91
2023-05-14T11:28:00.889Z,101737.78
2023-05-14T11:30:31.713Z,101742.50
2023-05-14T11:33:02.293Z,101728.09
2023-05-14T11:35:32.637Z,101726.00
2023-05-14T11:38:02.836Z,101736.59
2023-05-14T11:40:33.068Z,101734.69
2023-05-14T11:43:03.447Z,101720.09
2023-05-14T11:45:33.724Z,101721.59
2023-05-14T11:48:13.027Z,101717.09
2023-05-14T11:50:49.148Z,101703.34
2023-05-14T11:53:20.199Z,101707.63
2023-05-14T11:55:50.510Z,101711.94
2023-05-14T11:58:21.449Z,101698.19
2023-05-14T12:00:55.817Z,101699.25
2023-05-14T12:03:29.525Z,101710.50
2023-05-14T12:06:01.759Z,101716.84
2023-05-14T12:08:32.493Z,101692.75
2023-05-14T12:11:02.688Z,101707.69
2023-05-14T12:13:33.334Z,101688.34
2023-05-14T12:16:03.923Z,101693.16
2023-05-14T12:18:34.375Z,101691.63
2023-05-14T12:21:08.055Z,101703.22
2023-05-14T12:23:39.445Z,101695.75
2023-05-14T12:26:09.599Z,101661.84
2023-05-14T12:28:43.816Z,101690.84
2023-05-14T12:31:15.823Z,101692.00
2023-05-14T12:33:46.115Z,101683.56
2023-05-14T12:36:21.990Z,101667.06
2023-05-14T12:39:00.937Z,101680.69
2023-05-14T12:41:31.466Z,101671.34
2023-05-14T12:44:03.679Z,101681.00
2023-05-14T12:46:34.506Z,101643.09
2023-05-14T12:49:04.789Z,101669.25
2023-05-14T12:51:34.852Z,101666.66
2023-05-14T12:54:05.069Z,101673.03
2023-05-14T12:56:35.449Z,101677.94
2023-05-14T12:59:05.658Z,101656.38
2023-05-14T13:01:35.801Z,101667.28
2023-05-14T13:04:06.403Z,101678.69
2023-05-14T13:06:36.866Z,101662.53
2023-05-14T13:09:07.955Z,101673.91
2023-05-14T13:11:38.044Z,101673.03
2023-05-14T13:14:08.343Z,101712.56
2023-05-14T13:16:38.488Z,101735.59
2023-05-14T13:19:08.778Z,101712.06
2023-05-14T13:21:38.937Z,101686.84
2023-05-14T13:24:10.292Z,101664.13
2023-05-14T13:26:40.417Z,101657.44
2023-05-14T13:29:10.907Z,101659.03
2023-05-14T13:31:40.999Z,101640.81
2023-05-14T13:34:11.096Z,101650.16
2023-05-14T13:36:43.802Z,101653.84
2023-05-14T13:39:14.559Z,101657.69
2023-05-14T13:41:45.666Z,101651.78
2023-05-14T13:44:15.780Z,101638.59
2023-05-14T13:46:46.060Z,101633.97
2023-05-14T13:49:16.319Z,101639.59
2023-05-14T13:51:46.474Z,101630.50
2023-05-14T13:54:16.610Z,101627.13
2023-05-14T13:56:46.727Z,101613.56
2023-05-14T13:59:16.824Z,101601.00
2023-05-14T14:01:48.312Z,101614.13
2023-05-14T14:04:20.031Z,101608.50
2023-05-14T14:06:50.138Z,101609.47
2023-05-14T14:09:20.253Z,101608.28
2023-05-14T14:11:50.899Z,101610.72
2023-05-14T14:14:21.022Z,101606.09
2023-05-14T14:16:51.080Z,101603.72
2023-05-14T14:19:21.632Z,101603.31
2023-05-14T14:21:51.972Z,101571.84
2023-05-14T14:24:22.181Z,101591.75
2023-05-14T14:26:52.357Z,101567.41
2023-05-14T14:29:24.140Z,101575.84
2023-05-14T14:31:54.497Z,101582.38
2023-05-14T14:34:24.848Z,101564.56
2023-05-14T14:36:55.097Z,101572.66
2023-05-14T14:39:25.552Z,101569.34
2023-05-14T14:41:55.930Z,101567.81
2023-05-14T14:44:26.005Z,101559.19
2023-05-14T14:46:56.159Z,101568.44
2023-05-14T14:49:26.649Z,101576.09
2023-05-14T14:51:57.238Z,101555.88
2023-05-14T14:54:28.229Z,101563.56
2023-05-14T14:56:58.354Z,101538.25
2023-05-14T14:59:28.731Z,101561.16
2023-05-14T15:01:59.113Z,101553.09
2023-05-14T15:04:33.254Z,101550.59
2023-05-14T15:07:03.834Z,101551.75
2023-05-14T15:09:34.178Z,101532.28
2023-05-14T15:12:05.481Z,101527.22
2023-05-14T15:14:35.907Z,101524.28
2023-05-14T15:17:06.342Z,101515.22
2023-05-14T15:19:36.783Z,101512.00
2023-05-14T15:22:07.135Z,101515.19
2023-05-14T15:24:37.403Z,101518.19
2023-05-14T15:27:07.580Z,101493.09
2023-05-14T15:29:37.864Z,101509.56
2023-05-14T15:32:08.447Z,101498.97
2023-05-14T15:34:38.674Z,101509.56
2023-05-14T15:37:08.761Z,101501.34
2023-05-14T15:39:38.994Z,101504.19
2023-05-14T15:42:09.228Z,101502.69
2023-05-14T15:44:39.468Z,101507.88
2023-05-14T15:47:09.542Z,101504.38
2023-05-14T15:49:40.067Z,101497.41
2023-05-14T15:52:10.223Z,101480.13
2023-05-14T15:54:40.492Z,101484.56
2023-05-14T15:57:10.664Z,101481.69
2023-05-14T15:59:41.161Z,101494.00
2023-05-14T16:02:11.645Z,101481.31
2023-05-14T16:04:42.067Z,101498.56
2023-05-14T16:07:12.490Z,101486.66
2023-05-14T16:09:42.918Z,101489.19
2023-05-14T16:12:13.114Z,101498.47
2023-05-14T16:14:45.330Z,101494.50
2023-05-14T16:17:15.448Z,101486.84
2023-05-14T16:19:45.637Z,101481.09
2023-05-14T16:22:15.777Z,101477.66
2023-05-14T16:24:46.158Z,101460.66
2023-05-14T16:27:19.603Z,101471.22
2023-05-14T16:29:50.965Z,101417.63
2023-05-14T16:32:21.787Z,101459.97
2023-05-14T16:34:52.076Z,101443.94
2023-05-14T16:37:26.038Z,101434.66
2023-05-14T16:39:57.330Z,101451.06
2023-05-14T16:42:27.882Z,101465.25
2023-05-14T16:44:57.952Z,101457.97
2023-05-14T16:47:28.217Z,101463.66
2023-05-14T16:49:59.806Z,101448.47
2023-05-14T16:52:30.112Z,101462.38
2023-05-14T16:55:00.496Z,101429.56
2023-05-14T16:57:30.724Z,101444.94
2023-05-14T17:00:01.153Z,101431.19
2023-05-14T17:02:31.493Z,101434.47
2023-05-14T17:05:01.883Z,101442.28
2023-05-14T17:07:32.121Z,101438.00
2023-05-14T17:10:02.388Z,101439.94
2023-05-14T17:12:33.676Z,101442.97
2023-05-14T17:15:05.743Z,101437.13
2023-05-14T17:17:36.084Z,101425.69
2023-05-14T17:20:06.773Z,101419.13
2023-05-14T17:22:37.127Z,101429.22
2023-05-14T17:25:07.970Z,101432.22
2023-05-14T17:27:38.173Z,101431.94
2023-05-14T17:30:08.840Z,101427.34
2023-05-14T17:32:39.202Z,101440.09
2023-05-14T17:35:10.478Z,101429.41
2023-05-14T17:37:42.918Z,101431.03
2023-05-14T17:40:13.432Z,101409.72
2023-05-14T17:42:45.605Z,101427.28
2023-05-14T17:45:15.847Z,101435.31
2023-05-14T17:47:46.399Z,101431.88
2023-05-14T17:50:16.744Z,101414.72
2023-05-14T17:52:47.759Z,101428.19
2023-05-14T17:55:19.355Z,101438.88
2023-05-14T17:57:49.672Z,101420.72
2023-05-14T18:00:20.056Z,101425.03
2023-05-14T18:02:51.536Z,101427.00
2023-05-14T18:05:22.007Z,101415.25
2023-05-14T18:07:52.916Z,101433.69
2023-05-14T18:10:23.062Z,101406.38
2023-05-14T18:12:53.196Z,101413.44
2023-05-14T18:15:25.773Z,101409.19
2023-05-14T18:17:56.095Z,101410.34
2023-05-14T18:20:26.268Z,101406.91
2023-05-14T18:22:56.358Z,101432.31
2023-05-14T18:25:26.729Z,101393.69
2023-05-14T18:27:56.855Z,101421.31
2023-05-14T18:30:27.285Z,101426.63
2023-05-14T18:32:57.566Z,101433.09
2023-05-14T18:35:28.197Z,101430.84
2023-05-14T18:37:58.438Z,101425.13
2023-05-14T18:40:28.942Z,101429.16
2023-05-14T18:42:58.998Z,101424.34
2023-05-14T18:45:29.227Z,101425.03
2023-05-14T18:47:59.412Z,101423.31
2023-05-14T18:50:29.797Z,101406.34
2023-05-14T18:52:59.935Z,101423.97
2023-05-14T18:55:30.252Z,101409.88
2023-05-14T18:58:00.506Z,101429.81
2023-05-14T19:00:30.583Z,101433.53
2023-05-14T19:03:00.811Z,101414.78
2023-05-14T19:05:31.202Z,101389.13
2023-05-14T19:08:02.067Z,101427.38
2023-05-14T19:10:32.205Z,101427.44
2023-05-14T19:13:02.442Z,101419.72
2023-05-14T19:15:33.972Z,101411.25
2023-05-14T19:18:04.303Z,101421.72
2023-05-14T19:20:34.562Z,101422.78
2023-05-14T19:23:04.693Z,101392.66
2023-05-14T19:25:34.985Z,101412.03
2023-05-14T19:28:05.897Z,101421.63
2023-05-14T19:30:36.098Z,101401.84
2023-05-14T19:33:06.301Z,101410.44
2023-05-14T19:35:36.447Z,101401.03
2023-05-14T19:38:06.733Z,101406.28
2023-05-14T19:40:36.912Z,101386.72
2023-05-14T19:43:08.795Z,101398.72
2023-05-14T19:45:40.674Z,101390.22
2023-05-14T19:48:12.670Z,101400.00
2023-05-14T19:50:42.924Z,101375.31
2023-05-14T19:53:13.495Z,101401.31
2023-05-14T19:55:44.022Z,101404.81
2023-05-14T19:58:14.172Z,101391.09
2023-05-14T20:00:44.578Z,101398.09
2023-05-14T20:03:15.031Z,101397.44
2023-05-14T20:05:45.781Z,101380.25
2023-05-14T20:08:16.923Z,101402.81
2023-05-14T20:10:58.261Z,101401.28
2023-05-14T20:13:33.123Z,101384.13
2023-05-14T20:16:07.607Z,101403.13
2023-05-14T20:18:37.845Z,101405.91
2023-05-14T20:21:07.979Z,101407.75
2023-05-14T20:23:38.338Z,101391.53
2023-05-14T20:26:08.454Z,101388.25
2023-05-14T20:28:38.714Z,101396.06
2023-05-14T20:31:09.331Z,101398.56
2023-05-14T20:33:39.583Z,101398.69
2023-05-14T20:36:10.118Z,101359.94
2023-05-14T20:38:41.074Z,101395.41
2023-05-14T20:41:11.537Z,101388.69
2023-05-14T20:43:41.677Z,101386.97
2023-05-14T20:46:11.973Z,101363.69
2023-05-14T20:48:42.102Z,101395.63
2023-05-14T20:51:13.279Z,101389.66
2023-05-14T20:53:43.444Z,101381.00
2023-05-14T20:56:13.749Z,101374.19
2023-05-14T20:58:43.861Z,101387.06
2023-05-14T21:01:14.015Z,101345.88
2023-05-14T21:03:44.536Z,101383.75
2023-05-14T21:06:14.931Z,101354.53
2023-05-14T21:08:45.243Z,101373.41
2023-05-14T21:11:15.473Z,101347.59
2023-05-14T21:13:45.833Z,101371.03
2023-05-14T21:16:16.053Z,101352.75
2023-05-14T21:18:46.584Z,101350.09
2023-05-14T21:21:16.753Z,101367.53
2023-05-14T21:23:46.989Z,101349.31
2023-05-14T21:26:17.807Z,101353.81
2023-05-14T21:28:48.452Z,101368.44
2023-05-14T21:31:18.756Z,101361.44
2023-05-14T21:33:48.958Z,101340.97
2023-05-14T21:36:20.546Z,101348.78
2023-05-14T21:38:52.820Z,101339.22
2023-05-14T21:41:23.549Z,101353.81
2023-05-14T21:43:53.791Z,101348.84
2023-05-14T21:46:24.089Z,101338.31
2023-05-14T21:48:54.405Z,101351.38
2023-05-14T21:51:24.744Z,101341.78
2023-05-14T21:53:55.035Z,101342.97
2023-05-14T21:56:25.203Z,101340.31
2023-05-14T21:58:56.248Z,101330.03
2023-05-14T22:01:26.547Z,101350.69
2023-05-14T22:03:58.026Z,101338.66
2023-05-14T22:06:28.337Z,101336.81
2023-05-14T22:08:58.470Z,101329.88
2023-05-14T22:11:28.687Z,101340.22
2023-05-14T22:13:59.014Z,101343.00
2023-05-14T22:16:29.246Z,101342.84
2023-05-14T22:18:59.443Z,101335.97
2023-05-14T22:21:29.626Z,101328.25
2023-05-14T22:23:59.697Z,101338.81
2023-05-14T22:26:29.869Z,101320.63
2023-05-14T22:28:59.948Z,101323.09
2023-05-14T22:31:30.223Z,101338.81
2023-05-14T22:34:00.459Z,101338.00
2023-05-14T22:36:30.837Z,101311.28
2023-05-14T22:39:01.181Z,101329.38
2023-05-14T22:41:32.188Z,101331.94
2023-05-14T22:44:02.470Z,101332.06
2023-05-14T22:46:32.737Z,101318.00
2023-05-14T22:49:03.478Z,101324.94
2023-05-14T22:51:33.853Z,101319.66
2023-05-14T22:54:03.974Z,101302.47
2023-05-14T22:56:34.302Z,101317.00
2023-05-14T22:59:04.459Z,101315.22
2023-05-14T23:01:34.653Z,101306.47
2023-05-14T23:04:04.934Z,101297.28
2023-05-14T23:06:35.124Z,101288.44
2023-05-14T23:09:05.273Z,101291.13
2023-05-14T23:11:35.328Z,101298.84
2023-05-14T23:14:05.512Z,101292.59
2023-05-14T23:16:35.786Z,101261.56
2023-05-14T23:19:06.193Z,101283.72
2023-05-14T23:21:36.725Z,101283.81
2023-05-14T23:24:07.151Z,101273.34
2023-05-14T23:26:37.291Z,101269.16
2023-05-14T23:29:07.524Z,101268.94
2023-05-14T23:31:38.792Z,101252.53
2023-05-14T23:34:08.955Z,101262.75
2023-05-14T23:36:39.903Z,101259.25
2023-05-14T23:39:10.578Z,101259.44
2023-05-14T23:41:40.790Z,101241.34
2023-05-14T23:44:10.942Z,101245.66
2023-05-14T23:46:41.234Z,101244.69
2023-05-14T23:49:11.596Z,101239.44
2023-05-14T23:51:41.774Z,101217.84
2023-05-14T23:54:12.003Z,101201.47
2023-05-14T23:56:42.221Z,101220.44
2023-05-14T23:59:12.494Z,101202.16
